Time;durP1;ratioP1;P1;durP2;ratioP2;P2;SDS_P1;SDS_P2;PMS_P1;PMS_P2;Temp;Humidity;BMP_temperature;BMP_pressure;BME280_temperature;BME280_humidity;BME280_pressure;Samples;Min_cycle;Max_cycle;Signal;HPM_P1;HPM_P2
2023/06/22 00:02:24;;;;;;;8.90;3.37;;;;;;;19.72;83.11;101702.09;5033531;28;20124;-85
2023/06/22 00:04:52;;;;;;;7.82;3.50;;;;;;;19.62;83.19;101691.78;5002044;28;20025;-86
2023/06/22 00:07:17;;;;;;;12.57;3.97;;;;;;;19.53;83.00;101682.31;5033377;28;20111;-86
2023/06/22 00:09:43;;;;;;;13.27;3.37;;;;;;;19.51;83.47;101692.75;5033199;28;20037;-85
2023/06/22 00:12:08;;;;;;;6.73;3.67;;;;;;;19.41;84.03;101696.19;5033289;28;20040;-86
2023/06/22 00:14:39;;;;;;;13.67;4.03;;;;;;;19.36;84.15;101701.63;5000655;28;20283;-86
2023/06/22 00:17:04;;;;;;;9.40;3.85;;;;;;;19.33;86.82;101695.81;5033413;28;20461;-85
2023/06/22 00:19:30;;;;;;;9.50;3.70;;;;;;;19.30;84.44;101690.81;5033736;28;20029;-86
2023/06/22 00:22:00;;;;;;;8.00;3.63;;;;;;;19.27;84.84;101692.16;5016543;28;20036;-85
2023/06/22 00:24:28;;;;;;;13.95;4.22;;;;;;;19.23;86.01;101690.97;5033031;28;20026;-86
2023/06/22 00:26:54;;;;;;;10.02;3.65;;;;;;;19.20;87.60;101697.00;5034561;28;20029;-86
2023/06/22 00:29:19;;;;;;;7.40;3.70;;;;;;;19.17;88.25;101695.56;5016768;28;20033;-85
2023/06/22 00:31:44;;;;;;;7.13;3.90;;;;;;;19.08;87.17;101689.66;5032988;28;20033;-85
2023/06/22 00:34:10;;;;;;;9.50;3.83;;;;;;;19.06;88.35;101688.25;5033149;28;20025;-85
2023/06/22 00:36:38;;;;;;;10.97;4.17;;;;;;;19.02;88.40;101690.69;5032660;28;20108;-86
2023/06/22 00:39:11;;;;;;;9.73;3.97;;;;;;;18.93;87.14;101687.50;5032619;28;20100;-86
2023/06/22 00:41:36;;;;;;;12.63;4.72;;;;;;;18.86;86.65;101686.03;5034128;28;20469;-86
2023/06/22 00:44:13;;;;;;;10.70;4.83;;;;;;;18.79;86.25;101693.56;5033168;28;20033;-86
2023/06/22 00:46:39;;;;;;;10.73;4.88;;;;;;;18.75;87.37;101682.25;5016637;28;20124;-86
2023/06/22 00:49:09;;;;;;;9.53;4.63;;;;;;;18.75;88.39;101685.84;5032783;28;20116;-86
2023/06/22 00:51:37;;;;;;;6.75;4.25;;;;;;;18.72;88.66;101685.47;5032639;28;20029;-86
2023/06/22 00:54:05;;;;;;;11.20;4.32;;;;;;;18.69;88.96;101683.22;5033327;28;20443;-86
2023/06/22 00:56:31;;;;;;;11.63;4.60;;;;;;;18.66;88.24;101679.09;5032503;28;20069;-85
2023/06/22 00:58:59;;;;;;;11.05;5.40;;;;;;;18.59;89.17;101676.50;5032716;28;20083;-85
2023/06/22 01:01:24;;;;;;;10.07;5.07;;;;;;;18.54;88.73;101673.69;5033855;28;20036;-86
2023/06/22 01:03:51;;;;;;;10.47;5.30;;;;;;;18.56;88.88;101677.00;5032398;28;20119;-85
2023/06/22 01:06:26;;;;;;;9.13;5.22;;;;;;;18.55;88.57;101675.31;5033920;28;20033;-86
2023/06/22 01:09:08;;;;;;;9.80;4.90;;;;;;;18.53;89.40;101673.94;5032364;28;20124;-85
2023/06/22 01:11:47;;;;;;;9.73;5.22;;;;;;;18.46;90.42;101681.50;5032488;28;20103;-86
2023/06/22 01:14:41;;;;;;;8.35;5.25;;;;;;;18.40;91.49;101670.41;5032475;28;20465;-85
2023/06/22 01:17:08;;;;;;;12.97;5.77;;;;;;;18.41;92.16;101674.00;5031431;28;20044;-85
2023/06/22 01:19:47;;;;;;;8.80;5.00;;;;;;;18.45;92.83;101677.88;5033686;28;20025;-85
2023/06/22 01:22:16;;;;;;;8.63;5.70;;;;;;;18.46;92.86;101682.31;5032233;28;20026;-86
2023/06/22 01:25:05;;;;;;;10.38;6.28;;;;;;;18.50;92.96;101682.63;5032374;28;20087;-85
2023/06/22 01:28:00;;;;;;;10.73;6.28;;;;;;;18.56;92.18;101685.25;5031944;28;20068;-86
2023/06/22 01:30:29;;;;;;;11.13;6.50;;;;;;;18.63;91.89;101685.09;5032326;28;20079;-85
2023/06/22 01:32:59;;;;;;;7.78;6.00;;;;;;;18.66;92.71;101683.75;5031952;28;20064;-85
2023/06/22 01:35:25;;;;;;;7.10;6.40;;;;;;;18.67;91.33;101668.91;5032307;28;20048;-85
2023/06/22 01:37:51;;;;;;;9.25;6.60;;;;;;;18.67;89.83;101669.75;5033015;28;20445;-86
2023/06/22 01:40:18;;;;;;;9.40;7.00;;;;;;;18.65;89.80;101668.34;5032145;28;20030;-85
2023/06/22 01:42:47;;;;;;;8.70;7.35;;;;;;;18.65;89.59;101677.41;5031858;28;20163;-86
2023/06/22 01:45:14;;;;;;;7.32;6.57;;;;;;;18.62;90.44;101674.34;4999653;28;20041;-86
2023/06/22 01:47:42;;;;;;;9.18;6.38;;;;;;;18.58;91.11;101674.81;5032267;28;20041;-86
2023/06/22 01:50:18;;;;;;;;;;;;;;;;;;;;;
2023/06/22 01:52:44;;;;;;;8.90;7.20;;;;;;;18.57;93.03;101666.81;5017664;28;20039;-85
2023/06/22 01:55:13;;;;;;;10.60;7.40;;;;;;;18.55;92.72;101671.75;5032127;28;20120;-85
2023/06/22 01:57:41;;;;;;;10.57;7.60;;;;;;;18.52;93.69;101675.00;5031806;28;20034;-85
2023/06/22 02:00:18;;;;;;;11.27;8.27;;;;;;;18.55;93.21;101671.75;5033155;28;20029;-86
2023/06/22 02:02:51;;;;;;;12.30;8.57;;;;;;;18.54;92.54;101668.19;5033414;28;20029;-85
2023/06/22 02:05:19;;;;;;;9.93;8.15;;;;;;;18.55;91.66;101664.34;5031983;28;20032;-85
2023/06/22 02:08:02;;;;;;;13.65;8.07;;;;;;;18.59;90.74;101665.50;5030925;28;20112;-85
2023/06/22 02:10:29;;;;;;;12.57;7.50;;;;;;;18.60;92.92;101666.31;5031918;28;20022;-85
2023/06/22 02:12:57;;;;;;;9.73;7.30;;;;;;;18.61;93.37;101669.94;5032280;28;20033;-85
2023/06/22 02:15:22;;;;;;;9.80;7.85;;;;;;;18.60;93.38;101671.81;5015389;28;20420;-85
2023/06/22 02:17:48;;;;;;;11.50;7.67;;;;;;;18.56;93.51;101668.75;5015594;28;20034;-85
2023/06/22 02:20:14;;;;;;;11.70;7.68;;;;;;;18.55;93.86;101675.31;5031580;28;20036;-85
2023/06/22 02:22:40;;;;;;;8.25;6.90;;;;;;;18.53;93.50;101665.69;5015570;28;20052;-85
2023/06/22 02:25:06;;;;;;;10.33;7.40;;;;;;;18.49;93.56;101659.84;5015242;28;20030;-86
2023/06/22 02:27:34;;;;;;;11.43;8.20;;;;;;;18.44;93.40;101657.00;5033364;28;20069;-85
2023/06/22 02:30:00;;;;;;;10.43;8.00;;;;;;;18.43;93.53;101657.25;5035265;28;20028;-85
2023/06/22 02:32:26;;;;;;;11.52;8.30;;;;;;;18.41;93.84;101649.28;5035446;28;20045;-85
2023/06/22 02:34:55;;;;;;;11.00;8.07;;;;;;;18.39;94.58;101646.78;5018683;28;20385;-84
2023/06/22 02:37:25;;;;;;;11.10;8.73;;;;;;;18.34;94.68;101646.66;5036082;28;20033;-86
2023/06/22 02:39:52;;;;;;;12.57;8.85;;;;;;;18.31;95.25;101649.09;5035307;28;20037;-85
2023/06/22 02:42:23;;;;;;;11.10;9.07;;;;;;;18.28;95.06;101647.66;5018491;28;20076;-86
2023/06/22 02:44:49;;;;;;;12.23;8.43;;;;;;;18.23;95.33;101647.56;5035166;28;20424;-85
2023/06/22 02:47:18;;;;;;;13.07;8.90;;;;;;;18.18;95.90;101639.25;5035050;28;20037;-85
2023/06/22 02:49:46;;;;;;;14.53;9.10;;;;;;;18.13;96.71;101645.47;5036084;28;20303;-85
2023/06/22 02:52:12;;;;;;;14.40;8.88;;;;;;;18.09;96.82;101640.75;5034966;28;20037;-86
2023/06/22 02:54:37;;;;;;;14.03;8.53;;;;;;;18.07;96.59;101640.97;5034870;28;20030;-85
2023/06/22 02:57:03;;;;;;;12.77;9.07;;;;;;;18.03;97.24;101640.63;5034785;28;20025;-85
2023/06/22 02:59:31;;;;;;;13.20;9.23;;;;;;;17.99;97.64;101635.88;5034223;28;20396;-85
2023/06/22 03:02:00;;;;;;;11.48;9.13;;;;;;;17.97;97.75;101635.31;5034850;28;20088;-86
2023/06/22 03:04:31;;;;;;;10.57;8.98;;;;;;;17.95;98.34;101631.94;5034670;28;20049;-86
2023/06/22 03:07:00;;;;;;;15.95;9.02;;;;;;;17.93;99.23;101621.22;5018326;28;20477;-86
2023/06/22 03:09:25;;;;;;;13.93;9.13;;;;;;;17.91;99.26;101620.66;5018088;28;20041;-85
2023/06/22 03:11:51;;;;;;;14.00;9.47;;;;;;;17.89;98.55;101609.03;5034652;28;20096;-86
2023/06/22 03:14:16;;;;;;;15.00;9.20;;;;;;;17.90;99.05;101621.72;5035646;28;20033;-86
2023/06/22 03:16:44;;;;;;;9.80;8.80;;;;;;;17.90;100.00;101613.47;5035529;28;20112;-85
2023/06/22 03:19:15;;;;;;;11.87;9.30;;;;;;;17.87;99.59;101614.75;5034402;28;20300;-86
2023/06/22 03:21:40;;;;;;;12.73;9.23;;;;;;;17.85;99.96;101605.94;5034736;28;20041;-85
2023/06/22 03:24:07;;;;;;;12.60;9.00;;;;;;;17.82;100.00;101609.19;5034239;28;20034;-85
2023/06/22 03:26:37;;;;;;;12.68;9.43;;;;;;;17.78;100.00;101608.00;5033792;28;20428;-85
2023/06/22 03:29:03;;;;;;;11.05;8.95;;;;;;;17.76;100.00;101606.56;5034286;28;20048;-85
2023/06/22 03:31:28;;;;;;;10.57;8.98;;;;;;;17.73;100.00;101609.81;5017955;28;20061;-85
2023/06/22 03:33:56;;;;;;;11.43;9.23;;;;;;;17.69;100.00;101607.56;5018132;28;20469;-85
2023/06/22 03:36:22;;;;;;;14.40;9.57;;;;;;;17.65;100.00;101611.88;5034262;28;20116;-85
2023/06/22 03:38:49;;;;;;;12.80;9.93;;;;;;;17.60;100.00;101614.53;5033303;28;20460;-85
2023/06/22 03:41:16;;;;;;;12.88;9.63;;;;;;;17.60;100.00;101610.94;5033864;28;20080;-85
2023/06/22 03:43:42;;;;;;;13.75;10.13;;;;;;;17.60;100.00;101609.03;5035438;28;20495;-84
2023/06/22 03:46:08;;;;;;;13.80;9.60;;;;;;;17.58;100.00;101597.47;5017348;28;20029;-86
2023/06/22 03:48:35;;;;;;;14.02;10.38;;;;;;;17.61;100.00;101605.22;5033930;28;20029;-85
2023/06/22 03:51:02;;;;;;;13.65;10.13;;;;;;;17.62;100.00;101601.38;5033785;28;20056;-85
2023/06/22 03:53:34;;;;;;;18.30;11.10;;;;;;;17.62;100.00;101606.88;5033660;28;20466;-85
2023/06/22 03:56:00;;;;;;;14.75;10.85;;;;;;;17.62;100.00;101595.91;5035155;28;20029;-85
2023/06/22 03:58:25;;;;;;;14.33;11.57;;;;;;;17.60;100.00;101595.31;5033436;28;20396;-85
2023/06/22 04:00:52;;;;;;;14.47;11.10;;;;;;;17.64;100.00;101587.41;5033424;28;20284;-86
2023/06/22 04:03:24;;;;;;;16.23;11.75;;;;;;;17.63;100.00;101592.09;5033491;28;20061;-85
2023/06/22 04:05:52;;;;;;;13.88;10.55;;;;;;;17.68;100.00;101597.66;5034724;28;20080;-85
2023/06/22 04:08:17;;;;;;;17.63;11.47;;;;;;;17.70;100.00;101594.66;5017040;28;20033;-85
2023/06/22 04:10:43;;;;;;;16.58;11.95;;;;;;;17.72;100.00;101595.28;5033544;28;20389;-85
2023/06/22 04:13:09;;;;;;;15.03;10.70;;;;;;;17.73;100.00;101593.34;5016818;28;20500;-85
2023/06/22 04:15:34;;;;;;;15.70;11.15;;;;;;;17.75;100.00;101589.28;5033165;28;20072;-86
2023/06/22 04:18:02;;;;;;;15.60;11.03;;;;;;;17.81;100.00;101591.03;5033418;28;20120;-85
2023/06/22 04:20:28;;;;;;;15.07;11.50;;;;;;;17.87;100.00;101589.22;5033267;28;20082;-84
2023/06/22 04:22:54;;;;;;;14.60;11.30;;;;;;;17.90;100.00;101591.50;5033222;28;20392;-85
2023/06/22 04:25:20;;;;;;;15.90;11.70;;;;;;;17.94;100.00;101592.69;5033282;28;20033;-85
2023/06/22 04:27:48;;;;;;;13.35;10.88;;;;;;;18.00;99.94;101599.13;5033426;28;20048;-85
2023/06/22 04:30:16;;;;;;;17.50;11.70;;;;;;;18.05;99.71;101599.19;5032744;28;20029;-85
2023/06/22 04:32:41;;;;;;;16.85;12.18;;;;;;;18.14;99.52;101600.44;5032890;28;20025;-85
2023/06/22 04:35:07;;;;;;;16.58;11.88;;;;;;;18.26;99.10;101597.63;5034496;28;20048;-85
2023/06/22 04:37:40;;;;;;;18.33;11.40;;;;;;;18.37;97.61;101599.47;5032581;28;20029;-85
2023/06/22 04:40:06;;;;;;;15.38;11.50;;;;;;;18.54;96.98;101601.38;5016290;28;20116;-85
2023/06/22 04:42:34;;;;;;;17.10;11.73;;;;;;;18.64;95.96;101601.53;5032650;28;20148;-85
2023/06/22 04:44:59;;;;;;;19.17;11.60;;;;;;;18.74;95.45;101598.13;5032668;28;20042;-86
2023/06/22 04:47:25;;;;;;;14.30;11.27;;;;;;;18.82;94.95;101602.34;5016323;28;20063;-85
2023/06/22 04:49:50;;;;;;;15.43;11.97;;;;;;;18.89;94.90;101601.13;5032942;28;20036;-86
2023/06/22 04:52:17;;;;;;;15.43;12.10;;;;;;;18.97;94.96;101608.13;5032134;28;20031;-86
2023/06/22 04:54:47;;;;;;;19.05;11.93;;;;;;;19.08;94.33;101604.41;5016791;28;20389;-85
2023/06/22 04:57:14;;;;;;;15.32;11.60;;;;;;;19.19;93.98;101596.28;5032599;28;20090;-85
2023/06/22 04:59:41;;;;;;;15.70;11.32;;;;;;;19.21;92.87;101603.22;5032417;28;20543;-84
2023/06/22 05:02:09;;;;;;;14.70;11.20;;;;;;;19.29;92.04;101607.44;5032580;28;20038;-84
2023/06/22 05:04:38;;;;;;;18.47;11.80;;;;;;;19.34;91.05;101602.00;5033586;28;20062;-85
2023/06/22 05:07:07;;;;;;;16.20;11.50;;;;;;;19.41;90.92;101602.66;5032176;28;20091;-85
2023/06/22 05:09:35;;;;;;;17.73;11.32;;;;;;;19.50;90.43;101591.16;5015934;28;20045;-86
2023/06/22 05:12:02;;;;;;;13.27;11.88;;;;;;;19.61;89.77;101590.19;5016367;28;20370;-85
2023/06/22 05:14:36;;;;;;;16.10;11.50;;;;;;;19.77;89.30;101594.78;5032278;28;20029;-93
2023/06/22 05:17:03;;;;;;;14.63;11.10;;;;;;;19.94;88.35;101599.38;5032822;28;20065;-90
2023/06/22 05:19:33;;;;;;;16.45;11.05;;;;;;;20.15;87.54;101597.63;5016151;28;20465;-90
2023/06/22 05:21:58;;;;;;;19.92;11.82;;;;;;;20.25;86.83;101599.66;5032655;28;20056;-88
2023/06/22 05:24:24;;;;;;;17.07;11.83;;;;;;;20.32;86.71;101600.28;5033416;28;20462;-89
2023/06/22 05:26:49;;;;;;;23.77;12.30;;;;;;;20.37;86.84;101602.25;5032233;28;20079;-89
2023/06/22 05:29:14;;;;;;;15.33;11.13;;;;;;;20.39;86.33;101598.13;5032448;28;20033;-88
2023/06/22 05:31:42;;;;;;;16.23;11.88;;;;;;;20.40;86.47;101597.03;4999997;28;20048;-89
2023/06/22 05:34:07;;;;;;;16.75;12.32;;;;;;;20.40;86.46;101588.75;5000253;28;20029;-91
2023/06/22 05:36:35;;;;;;;15.23;11.83;;;;;;;20.44;86.40;101594.59;5016242;28;20040;-89
2023/06/22 05:39:12;;;;;;;17.92;12.95;;;;;;;20.47;86.31;101594.06;5017603;28;20041;-88
2023/06/22 05:41:40;;;;;;;17.67;13.40;;;;;;;20.48;86.56;101591.03;5012603;28;20096;-90
2023/06/22 05:44:05;;;;;;;17.40;14.25;;;;;;;20.54;86.75;101586.41;5012507;28;20493;-88
2023/06/22 05:46:31;;;;;;;17.00;13.00;;;;;;;20.57;86.69;101588.63;4980215;28;20072;-89
2023/06/22 05:48:56;;;;;;;18.77;13.55;;;;;;;20.62;86.29;101587.81;4980819;28;20030;-88
2023/06/22 05:51:21;;;;;;;18.40;13.83;;;;;;;20.73;86.13;101594.25;4996613;28;20026;-91
2023/06/22 05:53:49;;;;;;;19.90;14.67;;;;;;;20.83;85.92;101605.34;4996978;28;20044;-92
2023/06/22 05:56:18;;;;;;;20.90;14.80;;;;;;;20.92;85.44;101594.66;5013741;28;20489;-86
2023/06/22 05:58:44;;;;;;;19.55;14.30;;;;;;;21.02;84.89;101598.31;5011177;28;20029;-86
2023/06/22 06:01:12;;;;;;;21.63;14.77;;;;;;;21.15;85.12;101596.97;5012216;28;20385;-86
2023/06/22 06:03:41;;;;;;;19.77;13.98;;;;;;;21.29;83.97;101599.25;5017334;28;20032;-86
2023/06/22 06:06:07;;;;;;;19.55;14.35;;;;;;;21.44;83.67;101595.75;5017127;28;20037;-86
2023/06/22 06:08:32;;;;;;;19.73;14.07;;;;;;;21.59;82.56;101586.72;4998718;28;20033;-86
2023/06/22 06:10:58;;;;;;;17.53;14.37;;;;;;;21.69;82.52;101589.50;5015331;28;20030;-86
2023/06/22 06:13:24;;;;;;;18.63;13.57;;;;;;;21.85;81.13;101591.19;5016967;28;20048;-87
2023/06/22 06:15:51;;;;;;;18.43;13.97;;;;;;;21.93;80.82;101577.94;5016786;28;20281;-86
2023/06/22 06:18:17;;;;;;;19.85;14.85;;;;;;;21.99;80.45;101574.88;5014907;28;20030;-87
2023/06/22 06:20:42;;;;;;;20.57;14.60;;;;;;;22.08;79.92;101578.75;5014984;28;20052;-87
2023/06/22 06:23:08;;;;;;;20.67;14.95;;;;;;;22.22;79.36;101579.06;5015584;28;20034;-87
2023/06/22 06:25:33;;;;;;;19.83;14.20;;;;;;;22.32;78.80;101588.47;4998829;28;20038;-87
2023/06/22 06:27:58;;;;;;;17.83;14.27;;;;;;;22.43;78.36;101593.72;4999019;28;20060;-87
2023/06/22 06:30:24;;;;;;;18.20;13.97;;;;;;;22.52;77.70;101587.66;5015265;28;20385;-87
2023/06/22 06:32:50;;;;;;;17.73;14.47;;;;;;;22.60;77.56;101584.28;5015169;28;20356;-87
2023/06/22 06:35:16;;;;;;;18.48;14.40;;;;;;;22.74;77.99;101581.81;5016296;28;20037;-86
2023/06/22 06:37:46;;;;;;;19.37;14.67;;;;;;;22.79;77.20;101581.78;5014739;28;20088;-88
2023/06/22 06:40:13;;;;;;;17.85;14.40;;;;;;;22.87;76.80;101588.66;5016283;28;20029;-87
2023/06/22 06:42:41;;;;;;;18.27;14.18;;;;;;;22.99;75.73;101580.06;5014826;28;20144;-87
2023/06/22 06:45:18;;;;;;;17.33;14.55;;;;;;;23.08;75.32;101581.97;4999188;28;20505;-86
2023/06/22 06:47:44;;;;;;;18.48;14.52;;;;;;;23.15;74.62;101591.94;5014959;28;20390;-89
2023/06/22 06:50:12;;;;;;;22.50;14.30;;;;;;;23.10;74.99;101588.09;4998425;28;20500;-90
2023/06/22 06:52:38;;;;;;;22.17;14.07;;;;;;;23.14;74.76;101590.31;5014419;28;20389;-89
2023/06/22 06:55:08;;;;;;;20.57;13.87;;;;;;;23.08;75.19;101595.81;5016220;28;20034;-90
2023/06/22 06:57:34;;;;;;;20.58;14.00;;;;;;;23.03;75.07;101586.69;5014659;28;20030;-89
2023/06/22 07:00:02;;;;;;;24.52;14.52;;;;;;;22.95;75.34;101583.38;5016168;28;20053;-90
2023/06/22 07:02:27;;;;;;;18.33;13.73;;;;;;;22.89;75.62;101581.75;5014805;28;20041;-89
2023/06/22 07:04:56;;;;;;;22.10;14.23;;;;;;;22.80;75.97;101583.44;5015414;28;20038;-90
2023/06/22 07:07:21;;;;;;;18.45;14.95;;;;;;;22.75;76.84;101592.59;5015164;28;20030;-89
2023/06/22 07:09:47;;;;;;;17.70;14.00;;;;;;;22.72;76.71;101587.63;4998346;28;20097;-89
2023/06/22 07:12:12;;;;;;;19.63;15.23;;;;;;;22.69;76.70;101585.41;5014915;28;20022;-89
2023/06/22 07:14:38;;;;;;;18.05;14.85;;;;;;;22.54;77.63;101579.88;5014512;28;20022;-89
2023/06/22 07:17:06;;;;;;;20.93;15.00;;;;;;;22.48;77.76;101587.34;5014984;28;20474;-90
2023/06/22 07:19:32;;;;;;;21.10;15.05;;;;;;;22.48;77.91;101584.59;5015804;28;20045;-90
2023/06/22 07:21:58;;;;;;;19.13;15.35;;;;;;;22.46;79.19;101591.53;5014850;28;20033;-90
2023/06/22 07:24:24;;;;;;;19.20;15.53;;;;;;;22.47;78.30;101587.63;5014702;28;20060;-89
2023/06/22 07:26:50;;;;;;;18.83;14.65;;;;;;;22.45;78.28;101587.91;5014776;28;20038;-90
2023/06/22 07:29:20;;;;;;;21.60;16.00;;;;;;;22.46;78.38;101586.81;5014503;28;20397;-88
2023/06/22 07:31:56;;;;;;;21.65;15.85;;;;;;;22.46;78.57;101584.06;5015957;28;20076;-91
2023/06/22 07:34:22;;;;;;;21.00;16.48;;;;;;;22.51;82.40;101580.44;5013878;28;20128;-89
2023/06/22 07:36:47;;;;;;;23.60;17.50;;;;;;;22.43;81.57;101582.66;5014337;28;20026;-90
2023/06/22 07:39:14;;;;;;;19.30;16.17;;;;;;;22.38;84.22;101568.84;5014187;28;20029;-94
2023/06/22 07:41:42;;;;;;;23.88;16.98;;;;;;;22.37;87.13;101561.66;5014122;28;20396;-88
2023/06/22 07:44:08;;;;;;;23.55;18.02;;;;;;;22.51;89.59;101561.91;5014512;28;20030;-90
2023/06/22 07:46:33;;;;;;;19.87;16.20;;;;;;;22.58;84.45;101556.09;5014439;28;20128;-85
2023/06/22 07:48:59;;;;;;;22.67;17.02;;;;;;;22.68;85.97;101544.22;5015431;28;20038;-85
2023/06/22 07:51:25;;;;;;;21.00;17.00;;;;;;;22.76;85.32;101538.09;5013907;28;20040;-85
2023/06/22 07:53:53;;;;;;;26.85;18.33;;;;;;;22.81;85.69;101532.56;5013805;28;20030;-85
2023/06/22 07:56:21;;;;;;;27.05;18.80;;;;;;;22.87;85.66;101525.03;4997738;28;20180;-85
2023/06/22 07:58:47;;;;;;;22.90;18.13;;;;;;;23.05;85.22;101516.13;4997827;28;20030;-85
2023/06/22 08:01:14;;;;;;;26.23;18.38;;;;;;;23.13;86.12;101506.41;5014360;28;20113;-85
2023/06/22 08:03:40;;;;;;;21.73;18.30;;;;;;;23.23;83.98;101502.78;5014747;28;20034;-85
2023/06/22 08:06:08;;;;;;;22.97;18.43;;;;;;;23.34;85.29;101498.00;5012088;28;20041;-85
2023/06/22 08:08:33;;;;;;;25.35;18.02;;;;;;;23.50;85.22;101495.97;5019291;28;20596;-88
2023/06/22 08:10:59;;;;;;;21.20;17.83;;;;;;;23.67;83.65;101484.50;5016799;28;20116;-85
2023/06/22 08:13:24;;;;;;;29.63;18.63;;;;;;;23.91;82.72;101490.97;5033190;28;20036;-85
2023/06/22 08:15:50;;;;;;;23.63;19.57;;;;;;;24.00;81.17;101488.41;5033572;28;20032;-85
2023/06/22 08:18:16;;;;;;;25.03;18.43;;;;;;;24.03;79.41;101485.06;5033159;28;20022;-84
2023/06/22 08:20:42;;;;;;;22.45;17.48;;;;;;;24.13;80.72;101478.59;5031449;28;20496;-85
2023/06/22 08:23:07;;;;;;;21.27;17.02;;;;;;;24.22;78.78;101485.16;5033167;28;20032;-85
2023/06/22 08:25:36;;;;;;;23.93;17.03;;;;;;;24.26;79.41;101482.63;5031930;28;20060;-85
2023/06/22 08:28:02;;;;;;;24.27;16.70;;;;;;;24.29;79.62;101487.59;5032667;28;20477;-85
2023/06/22 08:30:30;;;;;;;20.80;17.33;;;;;;;24.25;79.79;101479.03;5030211;28;20374;-85
2023/06/22 08:32:56;;;;;;;23.48;16.67;;;;;;;24.21;79.59;101482.69;5013176;28;20042;-84
2023/06/22 08:35:24;;;;;;;20.60;16.30;;;;;;;24.07;80.04;101482.53;5013034;28;20552;-84
2023/06/22 08:37:52;;;;;;;23.58;16.02;;;;;;;23.93;79.69;101480.44;4996126;28;20042;-84
2023/06/22 08:40:19;;;;;;;23.85;16.05;;;;;;;23.95;80.83;101485.69;5013040;28;20037;-86
2023/06/22 08:42:45;;;;;;;21.10;16.45;;;;;;;23.98;81.35;101485.94;5028851;28;20050;-85
2023/06/22 08:45:11;;;;;;;20.63;16.05;;;;;;;23.96;80.67;101481.78;5016430;28;20029;-85
2023/06/22 08:47:37;;;;;;;18.97;15.70;;;;;;;23.98;79.82;101482.34;5033690;28;20030;-85
2023/06/22 08:50:03;;;;;;;22.17;15.73;;;;;;;23.90;78.37;101474.63;5033768;28;20041;-86
2023/06/22 08:52:31;;;;;;;17.33;14.47;;;;;;;23.78;78.30;101480.53;5023640;28;20087;-85
2023/06/22 08:54:59;;;;;;;18.15;14.90;;;;;;;23.63;79.37;101470.41;5025730;28;20025;-87
2023/06/22 08:57:26;;;;;;;19.55;14.80;;;;;;;23.59;79.60;101470.16;5013000;28;20032;-86
2023/06/22 08:59:52;;;;;;;16.50;14.25;;;;;;;23.57;79.28;101463.25;5029238;28;20026;-86
2023/06/22 09:02:19;;;;;;;18.67;14.07;;;;;;;23.51;79.82;101456.91;5019614;28;20026;-86
2023/06/22 09:04:55;;;;;;;21.57;14.10;;;;;;;23.53;79.90;101457.44;5012641;28;20493;-86
2023/06/22 09:07:23;;;;;;;18.55;14.38;;;;;;;23.54;81.36;101452.75;5012635;28;20033;-86
2023/06/22 09:09:48;;;;;;;17.02;13.63;;;;;;;23.58;78.03;101451.06;5012528;28;20053;-86
2023/06/22 09:12:14;;;;;;;18.00;13.83;;;;;;;23.55;78.60;101452.47;5032136;28;20377;-86
2023/06/22 09:14:39;;;;;;;16.80;13.17;;;;;;;23.53;77.74;101449.13;5016038;28;20338;-86
2023/06/22 09:17:05;;;;;;;16.60;12.30;;;;;;;23.57;77.43;101446.63;5032177;28;20442;-86
2023/06/22 09:19:33;;;;;;;19.90;13.40;;;;;;;23.58;76.22;101445.53;4994308;28;20046;-85
2023/06/22 09:21:59;;;;;;;17.60;12.27;;;;;;;23.72;74.94;101443.72;4996035;28;20030;-85
2023/06/22 09:24:28;;;;;;;15.55;12.48;;;;;;;23.82;74.61;101446.41;5028968;28;20490;-85
2023/06/22 09:26:54;;;;;;;13.45;11.80;;;;;;;23.93;74.06;101452.75;5028763;28;20036;-86
2023/06/22 09:29:22;;;;;;;14.47;11.43;;;;;;;24.15;72.99;101455.03;5014810;28;20033;-86
2023/06/22 09:31:47;;;;;;;16.58;12.20;;;;;;;24.34;72.18;101445.94;4996672;28;20442;-85
2023/06/22 09:34:13;;;;;;;13.17;11.47;;;;;;;24.52;71.12;101452.66;5009432;28;20088;-85
2023/06/22 09:36:39;;;;;;;14.90;11.20;;;;;;;24.57;69.68;101449.03;5016357;28;20033;-85
2023/06/22 09:39:06;;;;;;;17.60;11.70;;;;;;;24.61;71.31;101452.88;5019345;28;20048;-88
2023/06/22 09:41:32;;;;;;;14.83;11.30;;;;;;;24.62;70.60;101452.56;5016670;28;20081;-87
2023/06/22 09:44:05;;;;;;;13.77;10.80;;;;;;;24.66;70.34;101453.63;5031584;28;20063;-87
2023/06/22 09:46:30;;;;;;;14.38;10.52;;;;;;;24.62;69.75;101437.88;5015116;28;20033;-88
2023/06/22 09:48:56;;;;;;;13.47;10.20;;;;;;;24.65;68.63;101435.31;5015886;28;20080;-87
2023/06/22 09:51:32;;;;;;;15.20;10.47;;;;;;;24.66;68.77;101433.41;5015975;28;20033;-87
2023/06/22 09:54:04;;;;;;;12.25;9.95;;;;;;;24.63;67.92;101442.31;5000043;28;20042;-87
2023/06/22 09:56:37;;;;;;;14.43;10.20;;;;;;;24.57;67.51;101435.97;5015963;28;20420;-88
2023/06/22 09:59:07;;;;;;;16.85;10.80;;;;;;;24.59;67.02;101436.53;5000373;28;20041;-86
2023/06/22 10:01:33;;;;;;;13.00;9.73;;;;;;;24.64;66.72;101435.63;5000500;28;20048;-87
2023/06/22 10:04:05;;;;;;;14.05;9.88;;;;;;;24.58;66.35;101437.63;4999183;28;20062;-88
2023/06/22 10:06:32;;;;;;;13.83;9.50;;;;;;;24.52;66.05;101436.00;4985442;28;20125;-88
2023/06/22 10:09:01;;;;;;;15.07;10.30;;;;;;;24.58;65.25;101431.25;5015589;28;20030;-88
2023/06/22 10:11:34;;;;;;;11.70;10.13;;;;;;;24.53;65.59;101432.13;5017105;28;20037;-87
2023/06/22 10:14:04;;;;;;;12.15;10.05;;;;;;;24.52;65.29;101436.84;5000607;28;20064;-88
2023/06/22 10:16:36;;;;;;;13.70;10.90;;;;;;;24.56;66.87;101434.31;4999685;28;20056;-87
2023/06/22 10:19:38;;;;;;;17.27;11.50;;;;;;;24.65;66.23;101437.28;5015896;28;20034;-91
2023/06/22 10:23:15;;;;;;;;;;;;;;;;;;;;;
2023/06/22 10:25:07;;;;;;;13.20;10.70;;;;;;;24.53;66.24;101435.72;5008200;28;20121;-92
2023/06/22 10:27:35;;;;;;;14.07;10.68;;;;;;;24.44;67.29;101439.47;5016083;28;20045;-91
2023/06/22 10:30:01;;;;;;;16.35;11.35;;;;;;;24.31;66.94;101444.56;5000170;28;20038;-91
2023/06/22 10:32:29;;;;;;;12.53;10.50;;;;;;;24.18;68.40;101450.81;5015434;28;20095;-91
2023/06/22 10:35:01;;;;;;;14.52;10.77;;;;;;;23.97;70.03;101452.97;5017220;28;20060;-90
2023/06/22 10:37:29;;;;;;;12.60;10.70;;;;;;;23.83;71.41;101459.16;5023650;28;20128;-90
2023/06/22 10:39:54;;;;;;;14.73;11.20;;;;;;;23.83;74.00;101458.34;5015401;28;20096;-87
2023/06/22 10:42:22;;;;;;;15.45;11.50;;;;;;;23.89;73.38;101461.94;5031054;28;20049;-86
2023/06/22 10:44:47;;;;;;;15.67;12.60;;;;;;;23.95;76.68;101464.34;5014792;28;20037;-86
2023/06/22 10:47:13;;;;;;;15.93;12.57;;;;;;;23.90;75.90;101472.72;5015103;28;20484;-86
2023/06/22 10:50:01;;;;;;;;;;;;;;;;;;;;;
2023/06/22 10:52:27;;;;;;;18.92;13.27;;;;;;;23.60;81.54;101476.53;5016423;28;20030;-87
2023/06/22 10:54:52;;;;;;;21.70;15.03;;;;;;;23.15;85.31;101482.06;5016373;28;20385;-87
2023/06/22 10:57:18;;;;;;;19.63;14.53;;;;;;;22.63;86.78;101480.59;4998925;28;20079;-87
2023/06/22 10:59:44;;;;;;;19.30;14.70;;;;;;;22.20;89.67;101481.78;5016132;28;20061;-87
2023/06/22 11:02:09;;;;;;;21.87;15.70;;;;;;;22.03;94.86;101475.72;4998748;28;20033;-87
2023/06/22 11:04:35;;;;;;;21.70;15.75;;;;;;;22.01;98.73;101481.53;5015224;28;20049;-88
2023/06/22 11:07:01;;;;;;;23.40;16.67;;;;;;;21.75;100.00;101486.22;5031458;28;20022;-88
2023/06/22 11:09:26;;;;;;;29.92;18.92;;;;;;;21.37;100.00;101483.63;5030648;28;20116;-88
2023/06/22 11:11:55;;;;;;;26.17;19.13;;;;;;;21.09;100.00;101493.22;4998641;28;20041;-88
2023/06/22 11:14:25;;;;;;;29.60;20.92;;;;;;;20.95;100.00;101481.88;5014867;28;20481;-87
2023/06/22 11:16:50;;;;;;;29.08;20.23;;;;;;;20.85;100.00;101485.41;5014713;28;20141;-87
2023/06/22 11:19:18;;;;;;;32.50;21.07;;;;;;;20.77;100.00;101479.56;5014786;28;20050;-87
2023/06/22 11:21:44;;;;;;;31.90;22.98;;;;;;;20.76;100.00;101487.03;5016031;28;20026;-88